sensor_id;sensor_type;location;lat;lon;timestamp;temperature;humidity
7384;DHT22;3733;47.994;8.820;2023-08-01T00:00:25;17.50;99.90
7384;DHT22;3733;47.994;8.820;2023-08-01T00:02:51;17.50;99.90
7384;DHT22;3733;47.994;8.820;2023-08-01T00:05:17;17.50;99.90
7384;DHT22;3733;47.994;8.820;2023-08-01T00:07:42;17.40;99.90
7384;DHT22;3733;47.994;8.820;2023-08-01T00:10:08;17.40;99.90
7384;DHT22;3733;47.994;8.820;2023-08-01T00:12:34;17.40;99.90
7384;DHT22;3733;47.994;8.820;2023-08-01T00:15:00;17.30;99.90
7384;DHT22;3733;47.994;8.820;2023-08-01T00:17:25;17.30;99.90
7384;DHT22;3733;47.994;8.820;2023-08-01T00:19:51;17.30;99.90
7384;DHT22;3733;47.994;8.820;2023-08-01T00:22:17;17.20;99.90
7384;DHT22;3733;47.994;8.820;2023-08-01T00:24:42;17.20;99.90
7384;DHT22;3733;47.994;8.820;2023-08-01T00:27:08;17.10;99.90
7384;DHT22;3733;47.994;8.820;2023-08-01T00:29:35;17.10;99.90
7384;DHT22;3733;47.994;8.820;2023-08-01T00:32:01;17.10;99.90
7384;DHT22;3733;47.994;8.820;2023-08-01T00:34:27;17.10;99.90
7384;DHT22;3733;47.994;8.820;2023-08-01T00:36:52;17.00;99.90
7384;DHT22;3733;47.994;8.820;2023-08-01T00:39:18;17.00;99.90
7384;DHT22;3733;47.994;8.820;2023-08-01T00:41:43;17.00;99.90
7384;DHT22;3733;47.994;8.820;2023-08-01T00:44:09;17.00;99.90
7384;DHT22;3733;47.994;8.820;2023-08-01T00:46:34;17.10;99.90
7384;DHT22;3733;47.994;8.820;2023-08-01T00:49:00;17.10;99.90
7384;DHT22;3733;47.994;8.820;2023-08-01T00:51:26;17.10;99.90
7384;DHT22;3733;47.994;8.820;2023-08-01T00:53:53;17.10;99.90
7384;DHT22;3733;47.994;8.820;2023-08-01T00:56:19;17.00;99.90
7384;DHT22;3733;47.994;8.820;2023-08-01T00:58:44;17.00;99.90
7384;DHT22;3733;47.994;8.820;2023-08-01T01:01:10;17.00;99.90
7384;DHT22;3733;47.994;8.820;2023-08-01T01:03:36;17.00;99.90
7384;DHT22;3733;47.994;8.820;2023-08-01T01:08:37;16.90;99.90
7384;DHT22;3733;47.994;8.820;2023-08-01T01:11:03;16.90;99.90
7384;DHT22;3733;47.994;8.820;2023-08-01T01:13:29;16.90;99.90
7384;DHT22;3733;47.994;8.820;2023-08-01T01:15:55;16.90;99.90
7384;DHT22;3733;47.994;8.820;2023-08-01T01:18:21;16.80;99.90
7384;DHT22;3733;47.994;8.820;2023-08-01T01:20:46;16.80;99.90
7384;DHT22;3733;47.994;8.820;2023-08-01T01:23:12;16.80;99.90
7384;DHT22;3733;47.994;8.820;2023-08-01T01:25:39;16.80;99.90
7384;DHT22;3733;47.994;8.820;2023-08-01T01:28:06;16.70;99.90
7384;DHT22;3733;47.994;8.820;2023-08-01T01:30:32;16.70;99.90
7384;DHT22;3733;47.994;8.820;2023-08-01T01:33:02;16.70;99.90
7384;DHT22;3733;47.994;8.820;2023-08-01T01:35:29;16.70;99.90
7384;DHT22;3733;47.994;8.820;2023-08-01T01:37:55;16.70;99.90
7384;DHT22;3733;47.994;8.820;2023-08-01T01:40:21;16.70;99.90
7384;DHT22;3733;47.994;8.820;2023-08-01T01:42:46;16.70;99.90
7384;DHT22;3733;47.994;8.820;2023-08-01T01:45:13;16.70;99.90
7384;DHT22;3733;47.994;8.820;2023-08-01T01:47:39;16.70;99.90
7384;DHT22;3733;47.994;8.820;2023-08-01T01:50:05;16.70;99.90
7384;DHT22;3733;47.994;8.820;2023-08-01T01:52:31;16.70;99.90
7384;DHT22;3733;47.994;8.820;2023-08-01T01:54:58;16.70;99.90
7384;DHT22;3733;47.994;8.820;2023-08-01T01:57:23;16.70;99.90
7384;DHT22;3733;47.994;8.820;2023-08-01T01:59:49;16.60;99.90
7384;DHT22;3733;47.994;8.820;2023-08-01T02:02:15;16.60;99.90
7384;DHT22;3733;47.994;8.820;2023-08-01T02:04:40;16.60;99.90
7384;DHT22;3733;47.994;8.820;2023-08-01T02:07:06;16.60;99.90
7384;DHT22;3733;47.994;8.820;2023-08-01T02:09:31;16.60;99.90
7384;DHT22;3733;47.994;8.820;2023-08-01T02:11:57;16.70;99.90
7384;DHT22;3733;47.994;8.820;2023-08-01T02:14:22;16.70;99.90
7384;DHT22;3733;47.994;8.820;2023-08-01T02:16:48;16.70;99.90
7384;DHT22;3733;47.994;8.820;2023-08-01T02:19:14;16.70;99.90
7384;DHT22;3733;47.994;8.820;2023-08-01T02:21:39;16.70;99.90
7384;DHT22;3733;47.994;8.820;2023-08-01T02:24:05;16.70;99.90
7384;DHT22;3733;47.994;8.820;2023-08-01T02:26:31;16.70;99.90
7384;DHT22;3733;47.994;8.820;2023-08-01T02:28:56;16.70;99.90
7384;DHT22;3733;47.994;8.820;2023-08-01T02:31:22;16.70;99.90
7384;DHT22;3733;47.994;8.820;2023-08-01T02:33:47;16.70;99.90
7384;DHT22;3733;47.994;8.820;2023-08-01T02:36:13;16.70;99.90
7384;DHT22;3733;47.994;8.820;2023-08-01T02:38:39;16.70;99.90
7384;DHT22;3733;47.994;8.820;2023-08-01T02:41:04;16.60;99.90
7384;DHT22;3733;47.994;8.820;2023-08-01T02:43:30;16.60;99.90
7384;DHT22;3733;47.994;8.820;2023-08-01T02:45:55;16.70;99.90
7384;DHT22;3733;47.994;8.820;2023-08-01T02:48:21;16.70;99.90
7384;DHT22;3733;47.994;8.820;2023-08-01T02:50:47;16.70;99.90
7384;DHT22;3733;47.994;8.820;2023-08-01T02:53:13;16.70;99.90
7384;DHT22;3733;47.994;8.820;2023-08-01T02:55:39;16.70;99.90
7384;DHT22;3733;47.994;8.820;2023-08-01T02:58:05;16.70;99.90
7384;DHT22;3733;47.994;8.820;2023-08-01T03:00:30;16.70;99.90
7384;DHT22;3733;47.994;8.820;2023-08-01T03:02:57;16.60;99.90
7384;DHT22;3733;47.994;8.820;2023-08-01T03:05:23;16.60;99.90
7384;DHT22;3733;47.994;8.820;2023-08-01T03:07:48;16.60;99.90
7384;DHT22;3733;47.994;8.820;2023-08-01T03:10:14;16.70;99.90
7384;DHT22;3733;47.994;8.820;2023-08-01T03:12:39;16.70;99.90
7384;DHT22;3733;47.994;8.820;2023-08-01T03:15:06;16.70;99.90
7384;DHT22;3733;47.994;8.820;2023-08-01T03:17:34;16.80;99.90
7384;DHT22;3733;47.994;8.820;2023-08-01T03:20:00;16.90;99.90
7384;DHT22;3733;47.994;8.820;2023-08-01T03:22:25;16.90;99.90
7384;DHT22;3733;47.994;8.820;2023-08-01T03:24:51;16.90;99.90
7384;DHT22;3733;47.994;8.820;2023-08-01T03:27:16;16.90;99.90
7384;DHT22;3733;47.994;8.820;2023-08-01T03:29:42;17.00;99.90
7384;DHT22;3733;47.994;8.820;2023-08-01T03:32:07;17.00;99.90
7384;DHT22;3733;47.994;8.820;2023-08-01T03:34:33;17.00;99.90
7384;DHT22;3733;47.994;8.820;2023-08-01T03:36:59;17.00;99.90
7384;DHT22;3733;47.994;8.820;2023-08-01T03:39:24;17.00;99.90
7384;DHT22;3733;47.994;8.820;2023-08-01T03:41:51;17.00;99.90
7384;DHT22;3733;47.994;8.820;2023-08-01T03:44:16;17.00;99.90
7384;DHT22;3733;47.994;8.820;2023-08-01T03:46:42;17.00;99.90
7384;DHT22;3733;47.994;8.820;2023-08-01T03:49:08;17.10;99.90
7384;DHT22;3733;47.994;8.820;2023-08-01T03:51:34;17.10;99.90
7384;DHT22;3733;47.994;8.820;2023-08-01T03:54:00;17.10;99.90
7384;DHT22;3733;47.994;8.820;2023-08-01T03:56:26;17.20;99.90
7384;DHT22;3733;47.994;8.820;2023-08-01T03:58:52;17.30;99.90
7384;DHT22;3733;47.994;8.820;2023-08-01T04:01:18;17.30;99.90
7384;DHT22;3733;47.994;8.820;2023-08-01T04:03:44;17.30;99.90
7384;DHT22;3733;47.994;8.820;2023-08-01T04:06:09;17.40;99.90
7384;DHT22;3733;47.994;8.820;2023-08-01T04:08:36;17.40;99.90
7384;DHT22;3733;47.994;8.820;2023-08-01T04:11:01;17.40;99.90
7384;DHT22;3733;47.994;8.820;2023-08-01T04:13:27;17.40;99.90
7384;DHT22;3733;47.994;8.820;2023-08-01T04:15:52;17.40;99.90
7384;DHT22;3733;47.994;8.820;2023-08-01T04:18:18;17.50;99.90
7384;DHT22;3733;47.994;8.820;2023-08-01T04:20:44;17.40;99.90
7384;DHT22;3733;47.994;8.820;2023-08-01T04:23:09;17.50;99.90
7384;DHT22;3733;47.994;8.820;2023-08-01T04:25:35;17.50;99.90
7384;DHT22;3733;47.994;8.820;2023-08-01T04:28:00;17.50;99.90
7384;DHT22;3733;47.994;8.820;2023-08-01T04:30:26;17.50;99.90
7384;DHT22;3733;47.994;8.820;2023-08-01T04:32:51;17.50;99.90
7384;DHT22;3733;47.994;8.820;2023-08-01T04:35:17;17.50;99.90
7384;DHT22;3733;47.994;8.820;2023-08-01T04:37:42;17.50;99.90
7384;DHT22;3733;47.994;8.820;2023-08-01T04:40:08;17.40;99.90
7384;DHT22;3733;47.994;8.820;2023-08-01T04:42:34;17.40;99.90
7384;DHT22;3733;47.994;8.820;2023-08-01T04:45:00;17.40;99.90
7384;DHT22;3733;47.994;8.820;2023-08-01T04:47:25;17.40;99.90
7384;DHT22;3733;47.994;8.820;2023-08-01T04:49:51;17.40;99.90
7384;DHT22;3733;47.994;8.820;2023-08-01T04:52:16;17.40;99.90
7384;DHT22;3733;47.994;8.820;2023-08-01T04:54:42;17.40;99.90
7384;DHT22;3733;47.994;8.820;2023-08-01T04:57:07;17.40;99.90
7384;DHT22;3733;47.994;8.820;2023-08-01T04:59:33;17.50;99.90
7384;DHT22;3733;47.994;8.820;2023-08-01T05:01:59;17.50;99.90
7384;DHT22;3733;47.994;8.820;2023-08-01T05:04:25;17.50;99.90
7384;DHT22;3733;47.994;8.820;2023-08-01T05:06:50;17.50;99.90
7384;DHT22;3733;47.994;8.820;2023-08-01T05:09:16;17.50;99.90
7384;DHT22;3733;47.994;8.820;2023-08-01T05:11:42;17.50;99.90
7384;DHT22;3733;47.994;8.820;2023-08-01T05:14:07;17.50;99.90
7384;DHT22;3733;47.994;8.820;2023-08-01T05:16:33;17.50;99.90
7384;DHT22;3733;47.994;8.820;2023-08-01T05:18:58;17.50;99.90
7384;DHT22;3733;47.994;8.820;2023-08-01T05:21:24;17.40;99.90
7384;DHT22;3733;47.994;8.820;2023-08-01T05:23:50;17.40;99.90
7384;DHT22;3733;47.994;8.820;2023-08-01T05:26:16;17.30;99.90
7384;DHT22;3733;47.994;8.820;2023-08-01T05:28:41;17.30;99.90
7384;DHT22;3733;47.994;8.820;2023-08-01T05:31:07;17.20;99.90
7384;DHT22;3733;47.994;8.820;2023-08-01T05:33:33;17.10;99.90
7384;DHT22;3733;47.994;8.820;2023-08-01T05:35:58;17.10;99.90
7384;DHT22;3733;47.994;8.820;2023-08-01T05:38:24;17.00;99.90
7384;DHT22;3733;47.994;8.820;2023-08-01T05:40:49;16.90;99.90
7384;DHT22;3733;47.994;8.820;2023-08-01T05:43:15;16.80;99.90
7384;DHT22;3733;47.994;8.820;2023-08-01T05:45:41;16.70;99.90
7384;DHT22;3733;47.994;8.820;2023-08-01T05:48:06;16.70;99.90
7384;DHT22;3733;47.994;8.820;2023-08-01T05:50:32;16.60;99.90
7384;DHT22;3733;47.994;8.820;2023-08-01T05:52:58;16.50;99.90
7384;DHT22;3733;47.994;8.820;2023-08-01T05:55:23;16.50;99.90
7384;DHT22;3733;47.994;8.820;2023-08-01T05:57:49;16.50;99.90
7384;DHT22;3733;47.994;8.820;2023-08-01T06:00:18;16.40;99.90
7384;DHT22;3733;47.994;8.820;2023-08-01T06:02:45;16.40;99.90
7384;DHT22;3733;47.994;8.820;2023-08-01T06:05:10;16.30;99.90
7384;DHT22;3733;47.994;8.820;2023-08-01T06:07:36;16.20;99.90
7384;DHT22;3733;47.994;8.820;2023-08-01T06:10:02;16.20;99.90
7384;DHT22;3733;47.994;8.820;2023-08-01T06:12:28;16.20;99.90
7384;DHT22;3733;47.994;8.820;2023-08-01T06:14:54;16.20;99.90
7384;DHT22;3733;47.994;8.820;2023-08-01T06:17:20;16.20;99.90
7384;DHT22;3733;47.994;8.820;2023-08-01T06:19:45;16.10;99.90
7384;DHT22;3733;47.994;8.820;2023-08-01T06:22:11;16.10;99.90
7384;DHT22;3733;47.994;8.820;2023-08-01T06:24:36;16.10;99.90
7384;DHT22;3733;47.994;8.820;2023-08-01T06:27:02;16.00;99.90
7384;DHT22;3733;47.994;8.820;2023-08-01T06:29:28;16.00;99.90
7384;DHT22;3733;47.994;8.820;2023-08-01T06:31:53;16.00;99.90
7384;DHT22;3733;47.994;8.820;2023-08-01T06:34:19;16.10;99.90
7384;DHT22;3733;47.994;8.820;2023-08-01T06:36:44;16.10;99.90
7384;DHT22;3733;47.994;8.820;2023-08-01T06:39:10;16.00;99.90
7384;DHT22;3733;47.994;8.820;2023-08-01T06:41:36;16.00;99.90
7384;DHT22;3733;47.994;8.820;2023-08-01T06:44:02;16.10;99.90
7384;DHT22;3733;47.994;8.820;2023-08-01T06:46:27;16.00;99.90
7384;DHT22;3733;47.994;8.820;2023-08-01T06:48:53;16.10;99.90
7384;DHT22;3733;47.994;8.820;2023-08-01T06:51:19;16.10;99.90
7384;DHT22;3733;47.994;8.820;2023-08-01T06:53:44;16.10;99.90
7384;DHT22;3733;47.994;8.820;2023-08-01T06:56:10;16.10;99.90
7384;DHT22;3733;47.994;8.820;2023-08-01T06:58:35;16.10;99.90
7384;DHT22;3733;47.994;8.820;2023-08-01T07:01:01;16.10;99.90
7384;DHT22;3733;47.994;8.820;2023-08-01T07:03:27;16.00;99.90
7384;DHT22;3733;47.994;8.820;2023-08-01T07:05:52;16.00;99.90
7384;DHT22;3733;47.994;8.820;2023-08-01T07:08:18;16.00;99.90
7384;DHT22;3733;47.994;8.820;2023-08-01T07:10:43;16.00;99.90
7384;DHT22;3733;47.994;8.820;2023-08-01T07:13:10;16.00;99.90
7384;DHT22;3733;47.994;8.820;2023-08-01T07:15:36;15.90;99.90
7384;DHT22;3733;47.994;8.820;2023-08-01T07:18:01;15.80;99.90
7384;DHT22;3733;47.994;8.820;2023-08-01T07:20:28;15.80;99.90
7384;DHT22;3733;47.994;8.820;2023-08-01T07:22:54;15.80;99.90
7384;DHT22;3733;47.994;8.820;2023-08-01T07:25:19;15.80;99.90
7384;DHT22;3733;47.994;8.820;2023-08-01T07:27:46;15.80;99.90
7384;DHT22;3733;47.994;8.820;2023-08-01T07:30:11;15.80;99.90
7384;DHT22;3733;47.994;8.820;2023-08-01T07:32:37;15.80;99.90
7384;DHT22;3733;47.994;8.820;2023-08-01T07:35:04;15.80;99.90
7384;DHT22;3733;47.994;8.820;2023-08-01T07:37:32;15.90;99.90
7384;DHT22;3733;47.994;8.820;2023-08-01T07:39:58;15.90;99.90
7384;DHT22;3733;47.994;8.820;2023-08-01T07:42:24;15.90;99.90
7384;DHT22;3733;47.994;8.820;2023-08-01T07:44:49;15.90;99.90
7384;DHT22;3733;47.994;8.820;2023-08-01T07:47:15;15.80;99.90
7384;DHT22;3733;47.994;8.820;2023-08-01T07:49:40;15.80;99.90
7384;DHT22;3733;47.994;8.820;2023-08-01T07:52:06;15.80;99.90
7384;DHT22;3733;47.994;8.820;2023-08-01T07:54:32;15.90;99.90
7384;DHT22;3733;47.994;8.820;2023-08-01T07:56:57;16.00;99.90
7384;DHT22;3733;47.994;8.820;2023-08-01T07:59:23;16.10;99.90
7384;DHT22;3733;47.994;8.820;2023-08-01T08:01:49;16.20;99.90
7384;DHT22;3733;47.994;8.820;2023-08-01T08:04:14;16.30;99.90
7384;DHT22;3733;47.994;8.820;2023-08-01T08:06:40;16.40;99.90
7384;DHT22;3733;47.994;8.820;2023-08-01T08:09:06;16.40;99.90
7384;DHT22;3733;47.994;8.820;2023-08-01T08:11:32;16.40;99.90
7384;DHT22;3733;47.994;8.820;2023-08-01T08:13:59;16.40;99.90
7384;DHT22;3733;47.994;8.820;2023-08-01T08:16:24;16.40;99.90
7384;DHT22;3733;47.994;8.820;2023-08-01T08:18:50;16.40;99.90
7384;DHT22;3733;47.994;8.820;2023-08-01T08:21:16;16.30;99.90
7384;DHT22;3733;47.994;8.820;2023-08-01T08:23:42;16.30;99.90
7384;DHT22;3733;47.994;8.820;2023-08-01T08:26:07;16.20;99.90
7384;DHT22;3733;47.994;8.820;2023-08-01T08:28:33;16.20;99.90
7384;DHT22;3733;47.994;8.820;2023-08-01T08:31:00;16.10;99.90
7384;DHT22;3733;47.994;8.820;2023-08-01T08:33:26;16.00;99.90
7384;DHT22;3733;47.994;8.820;2023-08-01T08:35:52;16.00;99.90
7384;DHT22;3733;47.994;8.820;2023-08-01T08:38:18;16.00;99.90
7384;DHT22;3733;47.994;8.820;2023-08-01T08:40:55;15.90;99.90
7384;DHT22;3733;47.994;8.820;2023-08-01T08:43:26;15.90;99.90
7384;DHT22;3733;47.994;8.820;2023-08-01T08:45:53;15.80;99.90
7384;DHT22;3733;47.994;8.820;2023-08-01T08:48:22;15.80;99.90
7384;DHT22;3733;47.994;8.820;2023-08-01T08:50:49;15.70;99.90
7384;DHT22;3733;47.994;8.820;2023-08-01T08:53:15;15.70;99.90
7384;DHT22;3733;47.994;8.820;2023-08-01T08:55:41;15.60;99.90
7384;DHT22;3733;47.994;8.820;2023-08-01T08:58:08;15.60;99.90
7384;DHT22;3733;47.994;8.820;2023-08-01T09:00:36;15.60;99.90
7384;DHT22;3733;47.994;8.820;2023-08-01T09:03:03;15.70;99.90
7384;DHT22;3733;47.994;8.820;2023-08-01T09:05:31;15.80;99.90
7384;DHT22;3733;47.994;8.820;2023-08-01T09:08:02;15.80;99.90
7384;DHT22;3733;47.994;8.820;2023-08-01T09:10:31;15.90;99.90
7384;DHT22;3733;47.994;8.820;2023-08-01T09:12:56;16.00;99.90
7384;DHT22;3733;47.994;8.820;2023-08-01T09:15:23;16.00;99.90
7384;DHT22;3733;47.994;8.820;2023-08-01T09:17:54;16.10;99.90
7384;DHT22;3733;47.994;8.820;2023-08-01T09:20:27;16.10;99.90
7384;DHT22;3733;47.994;8.820;2023-08-01T09:22:53;16.10;99.90
7384;DHT22;3733;47.994;8.820;2023-08-01T09:25:18;16.10;99.90
7384;DHT22;3733;47.994;8.820;2023-08-01T09:27:44;16.10;99.90
7384;DHT22;3733;47.994;8.820;2023-08-01T09:30:14;16.10;99.90
7384;DHT22;3733;47.994;8.820;2023-08-01T09:32:55;16.20;99.90
7384;DHT22;3733;47.994;8.820;2023-08-01T09:35:21;16.20;99.90
7384;DHT22;3733;47.994;8.820;2023-08-01T09:37:48;16.20;99.90
7384;DHT22;3733;47.994;8.820;2023-08-01T09:40:14;16.30;99.90
7384;DHT22;3733;47.994;8.820;2023-08-01T09:42:44;16.30;99.90
7384;DHT22;3733;47.994;8.820;2023-08-01T09:45:13;16.40;99.90
7384;DHT22;3733;47.994;8.820;2023-08-01T09:47:40;16.40;99.90
7384;DHT22;3733;47.994;8.820;2023-08-01T09:50:06;16.40;99.90
7384;DHT22;3733;47.994;8.820;2023-08-01T09:52:33;16.50;99.90
7384;DHT22;3733;47.994;8.820;2023-08-01T09:54:58;16.70;99.90
7384;DHT22;3733;47.994;8.820;2023-08-01T09:57:28;16.70;99.90
7384;DHT22;3733;47.994;8.820;2023-08-01T09:59:56;16.70;99.90
7384;DHT22;3733;47.994;8.820;2023-08-01T10:02:24;16.70;99.90
7384;DHT22;3733;47.994;8.820;2023-08-01T10:04:56;16.70;99.90
7384;DHT22;3733;47.994;8.820;2023-08-01T10:07:24;16.60;99.90
7384;DHT22;3733;47.994;8.820;2023-08-01T10:09:57;16.60;99.90
7384;DHT22;3733;47.994;8.820;2023-08-01T10:12:25;16.50;99.90
7384;DHT22;3733;47.994;8.820;2023-08-01T10:14:52;16.60;99.90
7384;DHT22;3733;47.994;8.820;2023-08-01T10:17:19;16.60;99.90
7384;DHT22;3733;47.994;8.820;2023-08-01T10:19:45;16.60;99.90
7384;DHT22;3733;47.994;8.820;2023-08-01T10:22:12;16.60;99.90
7384;DHT22;3733;47.994;8.820;2023-08-01T10:24:39;16.70;99.90
7384;DHT22;3733;47.994;8.820;2023-08-01T10:27:19;16.80;99.90
7384;DHT22;3733;47.994;8.820;2023-08-01T10:29:45;16.80;99.90
7384;DHT22;3733;47.994;8.820;2023-08-01T10:32:37;16.90;99.90
7384;DHT22;3733;47.994;8.820;2023-08-01T10:35:03;17.10;99.90
7384;DHT22;3733;47.994;8.820;2023-08-01T10:37:40;17.20;99.90
7384;DHT22;3733;47.994;8.820;2023-08-01T10:40:07;17.30;99.90
7384;DHT22;3733;47.994;8.820;2023-08-01T10:42:40;17.40;99.90
7384;DHT22;3733;47.994;8.820;2023-08-01T10:45:07;17.60;99.90
7384;DHT22;3733;47.994;8.820;2023-08-01T10:47:33;17.70;99.90
7384;DHT22;3733;47.994;8.820;2023-08-01T10:49:59;17.90;99.90
7384;DHT22;3733;47.994;8.820;2023-08-01T10:52:26;18.10;99.90
7384;DHT22;3733;47.994;8.820;2023-08-01T10:55:00;18.30;99.90
7384;DHT22;3733;47.994;8.820;2023-08-01T10:57:28;18.50;99.90
7384;DHT22;3733;47.994;8.820;2023-08-01T10:59:58;18.50;99.90
7384;DHT22;3733;47.994;8.820;2023-08-01T11:02:26;18.50;99.90
7384;DHT22;3733;47.994;8.820;2023-08-01T11:05:18;18.50;99.90
7384;DHT22;3733;47.994;8.820;2023-08-01T11:07:54;18.50;99.90
7384;DHT22;3733;47.994;8.820;2023-08-01T11:10:20;18.50;99.90
7384;DHT22;3733;47.994;8.820;2023-08-01T11:12:46;18.60;99.90
7384;DHT22;3733;47.994;8.820;2023-08-01T11:15:14;18.60;99.90
7384;DHT22;3733;47.994;8.820;2023-08-01T11:17:46;18.60;99.90
7384;DHT22;3733;47.994;8.820;2023-08-01T11:20:13;18.50;99.90
7384;DHT22;3733;47.994;8.820;2023-08-01T11:22:57;18.50;99.90
7384;DHT22;3733;47.994;8.820;2023-08-01T11:25:51;18.40;99.90
7384;DHT22;3733;47.994;8.820;2023-08-01T11:28:17;18.30;99.90
7384;DHT22;3733;47.994;8.820;2023-08-01T11:30:43;18.30;99.90
7384;DHT22;3733;47.994;8.820;2023-08-01T11:33:22;18.50;99.90
7384;DHT22;3733;47.994;8.820;2023-08-01T11:35:54;18.60;99.90
7384;DHT22;3733;47.994;8.820;2023-08-01T11:38:26;18.70;99.90
7384;DHT22;3733;47.994;8.820;2023-08-01T11:40:56;18.70;99.90
7384;DHT22;3733;47.994;8.820;2023-08-01T11:43:22;18.70;99.90
7384;DHT22;3733;47.994;8.820;2023-08-01T11:45:51;18.70;99.90
7384;DHT22;3733;47.994;8.820;2023-08-01T11:48:17;18.80;99.90
7384;DHT22;3733;47.994;8.820;2023-08-01T11:50:44;18.80;99.90
7384;DHT22;3733;47.994;8.820;2023-08-01T11:53:22;18.90;99.90
7384;DHT22;3733;47.994;8.820;2023-08-01T11:55:49;19.00;99.90
7384;DHT22;3733;47.994;8.820;2023-08-01T11:58:30;19.20;99.90
7384;DHT22;3733;47.994;8.820;2023-08-01T12:01:04;19.50;99.90
7384;DHT22;3733;47.994;8.820;2023-08-01T12:03:29;19.70;99.90
7384;DHT22;3733;47.994;8.820;2023-08-01T12:06:05;19.80;99.90
7384;DHT22;3733;47.994;8.820;2023-08-01T12:08:33;19.80;99.90
7384;DHT22;3733;47.994;8.820;2023-08-01T12:11:00;19.80;99.90
7384;DHT22;3733;47.994;8.820;2023-08-01T12:13:26;20.00;99.90
7384;DHT22;3733;47.994;8.820;2023-08-01T12:15:55;20.20;99.90
7384;DHT22;3733;47.994;8.820;2023-08-01T12:18:27;20.20;99.90
7384;DHT22;3733;47.994;8.820;2023-08-01T12:20:53;20.10;99.90
7384;DHT22;3733;47.994;8.820;2023-08-01T12:23:18;20.10;99.90
7384;DHT22;3733;47.994;8.820;2023-08-01T12:25:44;20.40;99.90
7384;DHT22;3733;47.994;8.820;2023-08-01T12:28:10;20.70;99.90
7384;DHT22;3733;47.994;8.820;2023-08-01T12:30:36;20.90;99.90
7384;DHT22;3733;47.994;8.820;2023-08-01T12:33:04;21.00;99.70
7384;DHT22;3733;47.994;8.820;2023-08-01T12:35:29;21.10;96.50
7384;DHT22;3733;47.994;8.820;2023-08-01T12:37:55;21.00;92.00
7384;DHT22;3733;47.994;8.820;2023-08-01T12:40:22;20.70;92.30
7384;DHT22;3733;47.994;8.820;2023-08-01T12:42:47;20.40;93.20
7384;DHT22;3733;47.994;8.820;2023-08-01T12:45:13;20.20;97.10
7384;DHT22;3733;47.994;8.820;2023-08-01T12:47:39;20.00;97.90
7384;DHT22;3733;47.994;8.820;2023-08-01T12:50:05;19.80;96.80
7384;DHT22;3733;47.994;8.820;2023-08-01T12:52:31;19.70;99.40
7384;DHT22;3733;47.994;8.820;2023-08-01T12:54:56;19.70;99.90
7384;DHT22;3733;47.994;8.820;2023-08-01T12:57:22;19.90;99.90
7384;DHT22;3733;47.994;8.820;2023-08-01T12:59:47;20.50;99.90
7384;DHT22;3733;47.994;8.820;2023-08-01T13:02:14;20.80;99.20
7384;DHT22;3733;47.994;8.820;2023-08-01T13:04:39;20.90;98.90
7384;DHT22;3733;47.994;8.820;2023-08-01T13:07:05;20.90;97.20
7384;DHT22;3733;47.994;8.820;2023-08-01T13:09:31;20.80;97.30
7384;DHT22;3733;47.994;8.820;2023-08-01T13:11:56;20.60;99.20
7384;DHT22;3733;47.994;8.820;2023-08-01T13:14:24;20.50;99.90
7384;DHT22;3733;47.994;8.820;2023-08-01T13:16:49;20.20;99.90
7384;DHT22;3733;47.994;8.820;2023-08-01T13:19:15;19.80;99.90
7384;DHT22;3733;47.994;8.820;2023-08-01T13:21:41;19.40;99.90
7384;DHT22;3733;47.994;8.820;2023-08-01T13:24:06;19.00;99.90
7384;DHT22;3733;47.994;8.820;2023-08-01T13:26:32;18.70;99.90
7384;DHT22;3733;47.994;8.820;2023-08-01T13:28:58;18.40;99.90
7384;DHT22;3733;47.994;8.820;2023-08-01T13:31:25;18.10;99.90
7384;DHT22;3733;47.994;8.820;2023-08-01T13:33:51;18.20;99.90
7384;DHT22;3733;47.994;8.820;2023-08-01T13:36:19;18.40;99.90
7384;DHT22;3733;47.994;8.820;2023-08-01T13:38:45;18.50;99.90
7384;DHT22;3733;47.994;8.820;2023-08-01T13:41:10;18.40;99.90
7384;DHT22;3733;47.994;8.820;2023-08-01T13:43:36;18.30;99.90
7384;DHT22;3733;47.994;8.820;2023-08-01T13:46:13;18.20;99.90
7384;DHT22;3733;47.994;8.820;2023-08-01T13:48:40;18.10;99.90
7384;DHT22;3733;47.994;8.820;2023-08-01T13:51:06;18.10;99.90
7384;DHT22;3733;47.994;8.820;2023-08-01T13:53:32;18.30;99.90
7384;DHT22;3733;47.994;8.820;2023-08-01T13:55:59;18.70;99.90
7384;DHT22;3733;47.994;8.820;2023-08-01T13:58:24;19.30;99.90
7384;DHT22;3733;47.994;8.820;2023-08-01T14:00:50;20.00;99.90
7384;DHT22;3733;47.994;8.820;2023-08-01T14:03:16;20.60;99.90
7384;DHT22;3733;47.994;8.820;2023-08-01T14:05:41;21.10;99.90
7384;DHT22;3733;47.994;8.820;2023-08-01T14:08:07;21.60;99.90
7384;DHT22;3733;47.994;8.820;2023-08-01T14:10:33;22.10;95.60
7384;DHT22;3733;47.994;8.820;2023-08-01T14:12:58;22.40;95.30
7384;DHT22;3733;47.994;8.820;2023-08-01T14:15:24;22.20;92.00
7384;DHT22;3733;47.994;8.820;2023-08-01T14:17:49;22.00;90.00
7384;DHT22;3733;47.994;8.820;2023-08-01T14:20:15;21.80;91.40
7384;DHT22;3733;47.994;8.820;2023-08-01T14:22:43;21.50;95.70
7384;DHT22;3733;47.994;8.820;2023-08-01T14:25:09;21.20;95.10
7384;DHT22;3733;47.994;8.820;2023-08-01T14:27:34;20.80;92.50
7384;DHT22;3733;47.994;8.820;2023-08-01T14:30:01;20.60;95.10
7384;DHT22;3733;47.994;8.820;2023-08-01T14:32:27;20.90;99.90
7384;DHT22;3733;47.994;8.820;2023-08-01T14:34:53;21.40;99.90
7384;DHT22;3733;47.994;8.820;2023-08-01T14:37:18;22.00;92.60
7384;DHT22;3733;47.994;8.820;2023-08-01T14:39:44;22.60;88.30
7384;DHT22;3733;47.994;8.820;2023-08-01T14:42:10;23.10;72.40
7384;DHT22;3733;47.994;8.820;2023-08-01T14:44:36;23.50;65.20
7384;DHT22;3733;47.994;8.820;2023-08-01T14:47:02;23.60;62.40
7384;DHT22;3733;47.994;8.820;2023-08-01T14:49:28;23.30;62.30
7384;DHT22;3733;47.994;8.820;2023-08-01T14:51:54;23.30;64.50
7384;DHT22;3733;47.994;8.820;2023-08-01T14:54:20;23.50;68.40
7384;DHT22;3733;47.994;8.820;2023-08-01T14:56:46;23.90;66.80
7384;DHT22;3733;47.994;8.820;2023-08-01T14:59:11;24.00;66.00
7384;DHT22;3733;47.994;8.820;2023-08-01T15:01:37;24.20;62.70
7384;DHT22;3733;47.994;8.820;2023-08-01T15:04:03;24.30;59.40
7384;DHT22;3733;47.994;8.820;2023-08-01T15:06:29;24.50;59.00
7384;DHT22;3733;47.994;8.820;2023-08-01T15:08:54;24.60;59.00
7384;DHT22;3733;47.994;8.820;2023-08-01T15:11:20;24.70;56.80
7384;DHT22;3733;47.994;8.820;2023-08-01T15:13:46;24.80;57.60
7384;DHT22;3733;47.994;8.820;2023-08-01T15:16:12;24.90;56.10
7384;DHT22;3733;47.994;8.820;2023-08-01T15:18:37;25.00;54.90
7384;DHT22;3733;47.994;8.820;2023-08-01T15:21:03;24.90;54.30
7384;DHT22;3733;47.994;8.820;2023-08-01T15:23:29;24.40;54.80
7384;DHT22;3733;47.994;8.820;2023-08-01T15:25:58;23.80;55.50
7384;DHT22;3733;47.994;8.820;2023-08-01T15:28:25;23.20;56.10
7384;DHT22;3733;47.994;8.820;2023-08-01T15:31:01;22.80;57.80
7384;DHT22;3733;47.994;8.820;2023-08-01T15:33:27;22.60;60.30
7384;DHT22;3733;47.994;8.820;2023-08-01T15:35:59;22.60;62.40
7384;DHT22;3733;47.994;8.820;2023-08-01T15:38:25;22.40;62.80
7384;DHT22;3733;47.994;8.820;2023-08-01T15:40:51;22.20;63.40
7384;DHT22;3733;47.994;8.820;2023-08-01T15:43:22;22.10;64.00
7384;DHT22;3733;47.994;8.820;2023-08-01T15:45:48;21.90;66.00
7384;DHT22;3733;47.994;8.820;2023-08-01T15:48:13;21.60;66.40
7384;DHT22;3733;47.994;8.820;2023-08-01T15:50:39;21.40;67.20
7384;DHT22;3733;47.994;8.820;2023-08-01T15:53:05;21.20;69.50
7384;DHT22;3733;47.994;8.820;2023-08-01T15:55:31;21.00;71.50
7384;DHT22;3733;47.994;8.820;2023-08-01T15:57:57;20.80;70.60
7384;DHT22;3733;47.994;8.820;2023-08-01T16:00:22;20.60;70.60